.
WxDataArchive / Data Records for 2011-02-28
2011-02-27 February 2011 2011-03-01

Data Records for Monday, 28 February 2011

Time	Temp	Chill	HIndex	Humid	Dewpt	 Wind 	HiWind	WindDir	Rain 	Barom 
-----	----	-----	------	-----	-----	------	------	-------	-----	----- 
00:00	37.9	37.9	37.9	94	36.3	0	2	90	0.00	29.517 
00:05	37.9	37.9	37.9	94	36.3	0	2	90	0.00	29.517 
00:10	38.0	38.0	38.0	94	36.4	1	3	90	0.00	29.517 
00:15	38.0	38.0	38.0	94	36.4	0	2	45	0.00	29.474 
00:20	38.0	38.0	38.0	94	36.4	1	4	90	0.00	29.474 
00:25	38.0	38.0	38.0	94	36.4	1	3	90	0.00	29.474 
00:30	37.9	37.9	37.9	95	36.6	0	4	90	0.00	29.486 
00:35	37.8	37.8	37.8	95	36.5	0	2	90	0.01	29.486 
00:40	37.8	37.8	37.8	95	36.5	0	3	90	0.01	29.486 
00:45	37.6	37.6	37.6	95	36.3	0	4	90	0.01	29.498 
00:50	37.6	37.6	37.6	95	36.3	1	2	90	0.01	29.498 
00:55	37.5	37.5	37.5	95	36.2	0	3	90	0.02	29.498 
01:00	37.5	37.5	37.5	95	36.2	0	2	90	0.03	29.503 
01:05	37.3	37.3	37.3	95	36.0	1	3	90	0.02	29.503 
01:10	37.2	37.2	37.2	95	35.9	1	4	90	0.03	29.503 
01:15	37.0	37.0	37.0	95	35.7	0	2	68	0.02	29.488 
01:20	36.9	36.9	36.9	95	35.6	1	3	68	0.02	29.488 
01:25	36.8	36.8	36.8	95	35.5	0	2	68	0.01	29.488 
01:30	36.6	36.6	36.6	95	35.3	1	3	68	0.02	29.489 
01:35	36.5	36.5	36.5	95	35.2	2	5	338	0.01	29.489 
01:40	36.2	36.2	36.2	95	34.9	2	7	0	0.01	29.489 
01:45	36.2	36.2	36.2	95	34.9	3	7	270	0.01	29.491 
01:50	36.2	36.2	36.2	95	34.9	1	3	338	0.01	29.491 
01:55	36.2	36.2	36.2	95	34.9	2	7	338	0.01	29.491 
02:00	36.3	36.3	36.3	95	35.0	1	4	315	0.01	29.501 
02:05	36.5	36.5	36.5	95	35.2	1	4	315	0.01	29.501 
02:10	36.9	36.9	36.9	96	35.9	3	5	315	0.00	29.501 
02:15	37.2	37.2	37.2	96	36.2	2	5	338	0.01	29.531 
02:20	37.3	37.3	37.3	96	36.3	2	6	68	0.01	29.531 
02:25	37.6	37.6	37.6	96	36.6	2	9	90	0.00	29.531 
02:30	37.9	37.9	37.9	96	36.9	0	2	22	0.01	29.507 
02:35	38.0	38.0	38.0	96	37.0	1	5	22	0.01	29.507 
02:40	38.0	38.0	38.0	96	37.0	1	4	90	0.01	29.507 
02:45	38.2	38.2	38.2	96	37.2	1	6	90	0.00	29.470 
02:50	38.2	38.2	38.2	96	37.2	1	4	45	0.01	29.470 
02:55	38.2	38.2	38.2	96	37.2	1	4	45	0.01	29.470 
03:00	38.2	38.2	38.2	96	37.2	1	5	0	0.00	29.483 
03:05	38.2	38.2	38.2	96	37.2	1	3	0	0.01	29.483 
03:10	38.2	38.2	38.2	96	37.2	1	4	90	0.00	29.483 
03:15	38.2	38.2	38.2	96	37.2	2	6	90	0.01	29.451 
03:20	38.3	38.3	38.3	96	37.3	1	3	338	0.00	29.451 
03:25	38.3	38.3	38.3	96	37.3	2	7	338	0.01	29.451 
03:30	38.5	38.5	38.5	96	37.5	2	4	0	0.00	29.502 
03:35	38.5	38.5	38.5	96	37.5	1	4	248	0.01	29.502 
03:40	38.2	38.2	38.2	96	37.2	1	4	338	0.00	29.502 
03:45	38.0	38.0	38.0	96	37.0	1	3	338	0.01	29.494 
03:50	37.9	37.9	37.9	96	36.9	1	4	22	0.00	29.494 
03:55	37.8	37.8	37.8	96	36.8	0	2	112	0.01	29.494 
04:00	37.6	37.6	37.6	96	36.6	0	3	45	0.00	29.496 
04:05	37.5	37.5	37.5	96	36.5	1	3	22	0.00	29.496 
04:10	37.5	37.5	37.5	96	36.5	1	3	22	0.01	29.496 
04:15	37.5	37.5	37.5	96	36.5	1	4	292	0.00	29.550 
04:20	37.5	37.5	37.5	96	36.5	2	7	292	0.00	29.550 
04:25	37.5	37.5	37.5	96	36.5	3	9	315	0.01	29.550 
04:30	37.5	37.5	37.5	96	36.5	2	6	338	0.00	29.633 
04:35	37.3	37.3	37.3	96	36.3	2	4	315	0.00	29.633 
04:40	37.3	37.3	37.3	96	36.3	3	7	315	0.01	29.633 
04:45	37.2	37.2	37.2	96	36.2	3	6	315	0.00	29.651 
04:50	37.0	37.0	37.0	95	35.7	2	5	315	0.01	29.651 
04:55	36.8	36.8	36.8	95	35.5	3	8	270	0.00	29.651 
05:00	36.6	33.4	36.6	95	35.3	4	10	270	0.01	29.658 
05:05	36.5	36.5	36.5	95	35.2	2	6	315	0.00	29.658 
05:10	36.2	36.2	36.2	95	34.9	2	4	338	0.01	29.658 
05:15	36.0	36.0	36.0	95	34.7	2	5	22	0.00	29.532 
05:20	35.9	35.9	35.9	95	34.6	1	3	338	0.01	29.532 
05:25	35.8	35.8	35.8	95	34.5	1	6	112	0.00	29.532 
05:30	35.6	35.6	35.6	95	34.3	1	5	68	0.01	29.509 
05:35	35.5	35.5	35.5	95	34.2	1	4	90	0.00	29.509 
05:40	35.5	35.5	35.5	95	34.2	1	4	90	0.01	29.509 
05:45	35.5	35.5	35.5	95	34.2	1	3	90	0.00	29.537 
05:50	35.5	35.5	35.5	95	34.2	0	1	90	0.00	29.537 
05:55	35.5	35.5	35.5	95	34.2	0	1	90	0.01	29.537 
06:00	35.6	35.6	35.6	95	34.3	1	2	90	0.00	29.606 
06:05	35.5	35.5	35.5	95	34.2	1	3	338	0.00	29.606 
06:10	35.6	35.6	35.6	95	34.3	2	6	270	0.01	29.606 
06:15	35.6	35.6	35.6	95	34.3	2	5	292	0.00	29.667 
06:20	35.6	35.6	35.6	95	34.3	2	6	270	0.00	29.667 
06:25	35.6	35.6	35.6	95	34.3	3	10	315	0.01	29.667 
06:30	35.5	35.5	35.5	95	34.2	2	6	315	0.00	29.682 
06:35	35.3	35.3	35.3	95	34.0	3	7	315	0.00	29.682 
06:40	35.2	35.2	35.2	95	33.9	2	6	315	0.00	29.682 
06:45	35.0	35.0	35.0	94	33.5	2	6	315	0.01	29.670 
06:50	35.0	35.0	35.0	94	33.5	1	3	292	0.00	29.670 
06:55	34.9	34.9	34.9	94	33.4	1	4	270	0.00	29.670 
07:00	34.9	34.9	34.9	94	33.4	1	5	248	0.00	29.698 
07:05	34.7	34.7	34.7	94	33.2	3	10	270	0.01	29.698 
07:10	34.6	34.6	34.6	94	33.1	2	5	0	0.00	29.698 
07:15	34.4	34.4	34.4	94	32.9	3	6	292	0.00	29.711 
07:20	34.3	34.3	34.3	94	32.8	2	11	292	0.00	29.711 
07:25	34.3	34.3	34.3	94	32.8	3	9	270	0.00	29.711 
07:30	34.1	34.1	34.1	93	32.3	2	6	270	0.00	29.717 
07:35	34.1	34.1	34.1	93	32.3	1	3	315	0.01	29.717 
07:40	34.0	34.0	34.0	93	32.2	1	4	270	0.00	29.717 
07:45	33.8	33.8	33.8	93	32.0	1	5	338	0.00	29.740 
07:50	33.7	33.7	33.7	93	31.9	1	3	270	0.00	29.740 
07:55	33.7	33.7	33.7	93	31.9	1	3	338	0.00	29.740 
08:00	33.5	33.5	33.5	93	31.7	1	4	338	0.00	29.749 
08:05	33.5	33.5	33.5	93	31.7	1	4	270	0.00	29.749 
08:10	33.5	33.5	33.5	93	31.7	1	3	270	0.01	29.749 
08:15	33.5	33.5	33.5	92	31.4	1	4	248	0.00	29.763 
08:20	33.5	33.5	33.5	92	31.4	1	4	270	0.00	29.763 
08:25	33.5	33.5	33.5	92	31.4	0	2	270	0.00	29.763 
08:30	33.4	33.4	33.4	92	31.3	1	4	292	0.00	29.764 
08:35	33.4	33.4	33.4	92	31.3	1	3	292	0.00	29.764 
08:40	33.2	33.2	33.2	92	31.1	2	7	338	0.00	29.764 
08:45	33.1	33.1	33.1	92	31.0	2	5	292	0.00	29.791 
08:50	33.1	33.1	33.1	92	31.0	1	4	338	0.00	29.791 
08:55	33.1	33.1	33.1	92	31.0	1	3	338	0.01	29.791 
09:00	33.1	33.1	33.1	92	31.0	1	3	338	0.00	29.813 
09:05	32.9	32.9	32.9	91	30.6	2	5	315	0.00	29.813 
09:10	32.9	32.9	32.9	91	30.6	3	6	270	0.00	29.813 
09:15	32.8	32.8	32.8	91	30.5	2	5	270	0.00	29.839 
09:20	32.9	32.9	32.9	91	30.6	2	7	292	0.00	29.839 
09:25	32.9	32.9	32.9	91	30.6	1	6	338	0.00	29.839 
09:30	32.9	32.9	32.9	90	30.3	1	3	270	0.00	29.844 
09:35	32.9	32.9	32.9	90	30.3	1	3	270	0.00	29.844 
09:40	32.8	32.8	32.8	90	30.2	1	5	248	0.00	29.844 
09:45	32.8	32.8	32.8	89	29.9	1	6	315	0.00	29.844 
09:50	32.5	32.5	32.5	89	29.6	2	6	338	0.00	29.844 
09:55	32.5	32.5	32.5	88	29.3	2	6	338	0.00	29.844 
10:00	32.5	32.5	32.5	88	29.3	1	4	315	0.00	29.843 
10:05	32.5	32.5	32.5	88	29.3	1	3	292	0.00	29.843 
10:10	32.7	32.7	32.7	87	29.3	1	2	292	0.00	29.843 
10:15	32.7	32.7	32.7	87	29.3	1	3	315	0.00	29.868 
10:20	32.7	32.7	32.7	87	29.3	0	2	248	0.00	29.868 
10:25	32.7	32.7	32.7	87	29.3	1	5	270	0.01	29.868 
10:30	32.5	32.5	32.5	87	29.1	1	5	270	0.00	29.872 
10:35	32.4	32.4	32.4	87	29.0	2	5	315	0.00	29.872 
10:40	32.2	32.2	32.2	86	28.5	2	5	0	0.00	29.872 
10:45	32.2	32.2	32.2	86	28.5	1	6	338	0.00	29.892 
10:50	32.2	32.2	32.2	86	28.5	1	3	338	0.00	29.892 
10:55	32.2	32.2	32.2	85	28.2	2	5	270	0.00	29.892 
11:00	32.1	32.1	32.1	85	28.1	2	4	338	0.00	29.904 
11:05	32.1	32.1	32.1	85	28.1	1	4	338	0.00	29.904 
11:10	32.2	32.2	32.2	84	27.9	1	4	315	0.00	29.904 
11:15	32.2	32.2	32.2	84	27.9	1	3	0	0.00	29.932 
11:20	32.2	32.2	32.2	84	27.9	1	5	338	0.00	29.932 
11:25	32.4	32.4	32.4	83	27.8	1	3	315	0.00	29.932 
11:30	32.5	32.5	32.5	83	27.9	1	6	338	0.00	29.941 
11:35	32.5	32.5	32.5	83	27.9	1	5	292	0.00	29.941 
11:40	32.5	32.5	32.5	82	27.6	1	4	292	0.00	29.941 
11:45	32.7	32.7	32.7	81	27.5	1	3	338	0.00	29.954 
11:50	32.8	32.8	32.8	81	27.6	1	4	338	0.00	29.954 
11:55	32.8	32.8	32.8	81	27.6	1	4	0	0.00	29.954 
12:00	32.5	32.5	32.5	81	27.3	2	5	338	0.00	29.944 
12:05	32.4	32.4	32.4	80	26.9	2	9	270	0.00	29.944 
12:10	32.5	32.5	32.5	80	27.0	2	5	315	0.00	29.944 
12:15	32.5	32.5	32.5	78	26.4	2	5	338	0.00	29.955 
12:20	32.8	32.8	32.8	78	26.7	1	4	338	0.00	29.955 
12:25	32.9	32.9	32.9	77	26.5	1	4	292	0.00	29.955 
12:30	33.1	33.1	33.1	76	26.4	1	4	292	0.00	29.955 
12:35	33.2	33.2	33.2	76	26.5	1	4	315	0.00	29.955 
12:40	33.4	33.4	33.4	76	26.7	1	4	315	0.00	29.955 
12:45	33.2	33.2	33.2	76	26.5	2	5	315	0.00	29.955 
12:50	32.9	32.9	32.9	75	25.9	3	7	315	0.00	29.955 
12:55	32.9	32.9	32.9	76	26.2	2	6	270	0.00	29.955 
13:00	33.1	33.1	33.1	76	26.4	2	6	292	0.00	29.960 
13:05	32.9	32.9	32.9	75	25.9	3	7	270	0.00	29.960 
13:10	32.8	32.8	32.8	75	25.8	1	4	0	0.00	29.960 
13:15	32.7	32.7	32.7	74	25.3	2	6	315	0.00	29.984 
13:20	32.7	32.7	32.7	75	25.7	1	5	338	0.00	29.984 
13:25	32.8	32.8	32.8	74	25.4	2	4	315	0.00	29.984 
13:30	32.7	32.7	32.7	73	25.0	2	4	315	0.00	30.001 
13:35	32.5	32.5	32.5	73	24.8	3	6	270	0.00	30.001 
13:40	32.4	32.4	32.4	72	24.4	2	5	338	0.00	30.001 
13:45	32.4	32.4	32.4	71	24.1	3	6	292	0.00	30.003 
13:50	32.4	32.4	32.4	71	24.1	3	6	315	0.00	30.003 
13:55	32.4	32.4	32.4	71	24.1	2	5	315	0.00	30.003 
14:00	32.7	32.7	32.7	72	24.7	1	4	292	0.00	30.009 
14:05	32.5	32.5	32.5	71	24.2	2	7	338	0.00	30.009 
14:10	32.7	32.7	32.7	71	24.4	2	5	338	0.00	30.009 
14:15	32.8	32.8	32.8	69	23.8	2	6	338	0.00	30.012 
14:20	32.8	32.8	32.8	69	23.8	3	7	270	0.00	30.012 
14:25	32.8	32.8	32.8	69	23.8	2	7	315	0.00	30.012 
14:30	32.9	32.9	32.9	69	23.9	2	7	315	0.00	30.023 
14:35	32.8	32.8	32.8	69	23.8	2	5	338	0.00	30.023 
14:40	32.9	32.9	32.9	69	23.9	2	5	338	0.00	30.023 
14:45	32.8	32.8	32.8	69	23.8	1	3	338	0.00	30.031 
14:50	32.8	32.8	32.8	70	24.1	1	4	0	0.00	30.031 
14:55	32.9	32.9	32.9	69	23.9	1	5	22	0.00	30.031 
15:00	33.1	33.1	33.1	69	24.1	1	5	315	0.00	30.035 
15:05	33.1	33.1	33.1	68	23.7	1	4	315	0.00	30.035 
15:10	33.5	33.5	33.5	69	24.4	1	3	338	0.00	30.035 
15:15	34.1	34.1	34.1	69	25.0	1	3	338	0.00	30.036 
15:20	34.3	34.3	34.3	67	24.5	1	3	0	0.00	30.036 
15:25	34.1	34.1	34.1	65	23.6	2	5	315	0.00	30.036 
15:30	34.3	34.3	34.3	66	24.1	1	3	270	0.00	30.049 
15:35	34.1	34.1	34.1	65	23.6	2	6	338	0.00	30.049 
15:40	34.1	34.1	34.1	65	23.6	2	4	315	0.00	30.049 
15:45	34.1	34.1	34.1	65	23.6	2	7	338	0.00	30.063 
15:50	33.7	33.7	33.7	65	23.2	2	7	45	0.00	30.063 
15:55	33.4	33.4	33.4	65	22.9	1	4	338	0.00	30.063 
16:00	33.2	33.2	33.2	65	22.7	1	3	0	0.00	30.076 
16:05	33.1	33.1	33.1	64	22.3	2	6	270	0.00	30.076 
16:10	33.1	33.1	33.1	65	22.6	1	5	292	0.00	30.076 
16:15	32.9	32.9	32.9	65	22.4	2	6	315	0.00	30.083 
16:20	33.2	33.2	33.2	65	22.7	2	6	270	0.00	30.083 
16:25	33.4	33.4	33.4	64	22.6	2	4	338	0.00	30.083 
16:30	33.1	33.1	33.1	64	22.3	1	4	270	0.00	30.096 
16:35	32.9	32.9	32.9	65	22.4	1	5	338	0.00	30.096 
16:40	33.1	33.1	33.1	64	22.3	2	7	270	0.00	30.096 
16:45	32.9	32.9	32.9	63	21.7	3	9	270	0.00	30.098 
16:50	32.8	32.8	32.8	63	21.6	3	6	338	0.00	30.098 
16:55	32.7	32.7	32.7	63	21.5	3	7	270	0.00	30.098 
17:00	32.7	32.7	32.7	63	21.5	2	4	315	0.00	30.112 
17:05	32.8	32.8	32.8	64	22.0	2	5	292	0.00	30.112 
17:10	32.9	32.9	32.9	63	21.7	2	4	338	0.00	30.112 
17:15	32.8	32.8	32.8	63	21.6	1	4	292	0.00	30.117 
17:20	32.7	32.7	32.7	62	21.1	1	5	270	0.00	30.117 
17:25	32.5	32.5	32.5	63	21.3	1	4	292	0.00	30.117 
17:30	32.4	32.4	32.4	63	21.2	1	5	270	0.00	30.124 
17:35	32.4	32.4	32.4	63	21.2	1	4	315	0.00	30.124 
17:40	32.2	32.2	32.2	63	21.0	1	2	0	0.00	30.124 
17:45	32.2	32.2	32.2	64	21.4	1	4	0	0.00	30.133 
17:50	32.1	32.1	32.1	64	21.3	1	3	292	0.00	30.133 
17:55	32.1	32.1	32.1	64	21.3	1	4	338	0.00	30.133 
18:00	31.9	31.9	31.9	64	21.1	1	4	338	0.00	30.146 
18:05	31.8	31.8	31.8	64	21.0	1	3	270	0.00	30.146 
18:10	31.8	31.8	31.8	65	21.4	0	2	270	0.00	30.146 
18:15	31.6	31.6	31.6	65	21.2	0	1	270	0.00	30.156 
18:20	31.5	31.5	31.5	65	21.1	0	2	270	0.00	30.156 
18:25	31.3	31.3	31.3	66	21.3	0	2	270	0.00	30.156 
18:30	31.2	31.2	31.2	66	21.2	0	2	270	0.00	30.160 
18:35	31.0	31.0	31.0	66	21.0	0	1	270	0.00	30.160 
18:40	30.9	30.9	30.9	66	20.9	0	1	270	0.00	30.160 
18:45	30.7	30.7	30.7	67	21.1	0	0	---	0.00	30.168 
18:50	30.6	30.6	30.6	68	21.3	0	0	---	0.00	30.168 
18:55	30.3	30.3	30.3	68	21.0	0	0	---	0.00	30.168 
19:00	30.1	30.1	30.1	69	21.2	0	0	---	0.00	30.178 
19:05	29.8	29.8	29.8	69	20.9	0	0	---	0.00	30.178 
19:10	29.7	29.7	29.7	69	20.8	0	0	---	0.00	30.178 
19:15	29.4	29.4	29.4	70	20.8	0	0	---	0.00	30.186 
19:20	29.3	29.3	29.3	71	21.1	0	0	---	0.00	30.186 
19:25	29.1	29.1	29.1	71	20.9	0	0	---	0.00	30.186 
19:30	28.8	28.8	28.8	72	20.9	0	0	---	0.00	30.203 
19:35	28.7	28.7	28.7	72	20.8	0	0	---	0.00	30.203 
19:40	28.5	28.5	28.5	73	21.0	0	0	---	0.00	30.203 
19:45	28.2	28.2	28.2	73	20.7	0	0	---	0.00	30.209 
19:50	28.1	28.1	28.1	74	20.9	0	0	---	0.00	30.209 
19:55	27.8	27.8	27.8	74	20.6	0	0	---	0.00	30.209 
20:00	27.5	27.5	27.5	74	20.3	0	0	---	0.00	30.212 
20:05	27.3	27.3	27.3	76	20.8	0	0	---	0.00	30.212 
20:10	27.2	27.2	27.2	77	21.0	0	0	---	0.00	30.212 
20:15	26.9	26.9	26.9	77	20.7	0	0	---	0.00	30.218 
20:20	26.7	26.7	26.7	78	20.8	0	0	---	0.00	30.218 
20:25	26.6	26.6	26.6	78	20.7	0	0	---	0.00	30.218 
20:30	26.3	26.3	26.3	79	20.7	0	0	---	0.00	30.228 
20:35	26.1	26.1	26.1	79	20.5	0	0	---	0.00	30.228 
20:40	26.0	26.0	26.0	80	20.7	0	0	---	0.00	30.228 
20:45	25.8	25.8	25.8	80	20.5	0	0	---	0.00	30.228 
20:50	25.6	25.6	25.6	81	20.6	0	0	---	0.00	30.228 
20:55	25.6	25.6	25.6	81	20.6	0	0	---	0.00	30.228 
21:00	25.4	25.4	25.4	82	20.7	0	0	---	0.00	30.234 
21:05	25.3	25.3	25.3	82	20.6	0	0	---	0.00	30.234 
21:10	25.3	25.3	25.3	83	20.9	0	0	---	0.00	30.234 
21:15	25.1	25.1	25.1	83	20.7	0	0	---	0.00	30.237 
21:20	25.0	25.0	25.0	84	20.9	0	0	---	0.00	30.237 
21:25	24.8	24.8	24.8	84	20.7	0	0	---	0.00	30.237 
21:30	24.8	24.8	24.8	84	20.7	0	0	---	0.00	30.244 
21:35	24.7	24.7	24.7	84	20.6	0	0	---	0.00	30.244 
21:40	24.7	24.7	24.7	84	20.6	0	0	---	0.00	30.244 
21:45	24.5	24.5	24.5	84	20.4	0	0	---	0.00	30.245 
21:50	24.4	24.4	24.4	85	20.6	0	0	---	0.00	30.245 
21:55	24.2	24.2	24.2	85	20.4	0	0	---	0.00	30.245 
22:00	24.1	24.1	24.1	85	20.3	0	0	---	0.00	30.246 
22:05	23.9	23.9	23.9	85	20.1	0	0	---	0.00	30.246 
22:10	23.8	23.8	23.8	85	20.0	0	0	---	0.00	30.246 
22:15	23.8	23.8	23.8	85	20.0	0	0	---	0.00	30.248 
22:20	23.6	23.6	23.6	86	20.0	0	0	---	0.00	30.248 
22:25	23.6	23.6	23.6	86	20.0	0	0	---	0.00	30.248 
22:30	23.5	23.5	23.5	86	19.9	0	0	---	0.00	30.252 
22:35	23.5	23.5	23.5	86	19.9	0	0	---	0.00	30.252 
22:40	23.5	23.5	23.5	86	19.9	0	0	---	0.00	30.252 
22:45	23.5	23.5	23.5	87	20.2	0	0	---	0.00	30.255 
22:50	23.6	23.6	23.6	87	20.3	0	0	---	0.00	30.255 
22:55	23.8	23.8	23.8	87	20.5	0	0	---	0.00	30.255 
23:00	23.9	23.9	23.9	88	20.9	0	0	---	0.00	30.266 
23:05	24.1	24.1	24.1	88	21.1	0	1	270	0.00	30.266 
23:10	24.4	24.4	24.4	88	21.4	0	0	---	0.00	30.266 
23:15	24.5	24.5	24.5	88	21.5	0	1	270	0.00	30.262 
23:20	24.8	24.8	24.8	88	21.8	0	1	270	0.00	30.262 
23:25	25.0	25.0	25.0	87	21.7	0	1	270	0.00	30.262 
23:30	25.1	25.1	25.1	87	21.8	0	1	270	0.00	30.265 
23:35	25.3	25.3	25.3	86	21.7	0	1	270	0.00	30.265 
23:40	25.3	25.3	25.3	86	21.7	0	1	270	0.00	30.265 
23:45	25.3	25.3	25.3	85	21.4	0	1	270	0.00	30.269 
23:50	25.3	25.3	25.3	85	21.4	0	0	---	0.00	30.269 
23:55	25.3	25.3	25.3	84	21.2	0	0	---	0.00	30.269 

CoCoRaHS
IN-AL-39
A2 Web Hosting
Creative Commons License
GoDaddy
search engine by freefind advanced

loaded 2018-11-20 09:19:06 • last modified 2010-11-18 10:43:29
Privacy PolicyDisclaimer
• wx.awcolley.com is powered by PmWiki v.2002016 •
• all content (unless otherwise noted) © 2018 A W Colley